Flight Track Log - Related Links

Times and Time Zones

All times are in EDT time to prevent confusion due to time zone crossing. See the KAP927 flight status page for this flight to view local times or setup timezone preferences in your user account.

Time Position Orientation Groundspeed Altitude Reporting Facility
EDT Latitude Longitude Course Direction KTS MPH feet Rate Location/Type
Thu 01:24:04 PM 42.3833 -71.0000 360° North 116 133 400  Level KA90
Thu 01:24:34 PM 42.4000 -71.0000 360° North 114 131 900 733 Climbing KA90
Thu 01:25:34 PM 42.4167 -71.0333 304° West 132 152 1,500 550 Climbing KA90
Thu 01:26:34 PM 42.4167 -71.0833 270° West 139 160 2,000 476 Climbing KA90
Thu 01:27:40 PM 42.4000 -71.1333 246° West 132 152 2,500 476 Climbing KA90
Thu 01:28:40 PM 42.3833 -71.1833 246° West 132 152 3,000 524 Climbing KA90
Thu 01:29:46 PM 42.3833 -71.2333 270° West 133 153 3,600 571 Climbing KA90
Thu 01:30:46 PM 42.3667 -71.2833 246° West 130 150 4,200 550 Climbing KA90
Thu 01:31:46 PM 42.3667 -71.3333 270° West 129 148 4,700 500 Climbing KA90
Thu 01:32:46 PM 42.3500 -71.3667 236° Southwest 128 147 5,200 524 Climbing KA90
Thu 01:33:52 PM 42.3500 -71.4167 270° West 125 144 5,800 550 Climbing KA90
Thu 01:34:46 PM 42.3333 -71.4667 246° West 126 145 6,300 495 Climbing KA90
Thu 01:35:29 PM 42.3278 -71.5022 258° West 128 147 6,600 466 Climbing Boston Center
Thu 01:36:29 PM 42.3197 -71.5500 257° West 128 147 7,100 496 Climbing Boston Center
Thu 01:37:30 PM 42.3078 -71.5950 250° West 129 148 7,600 422 Climbing Boston Center
Thu 01:38:37 PM 42.2975 -71.6514 256° West 136 157 8,000 236 Climbing Boston Center
Thu 01:39:37 PM 42.2875 -71.7106 257° West 149 171 8,100 50 Climbing Boston Center
Thu 01:40:38 PM 42.2797 -71.7694 260° West 163 188 8,100  Level Boston Center
Thu 01:41:45 PM 42.2675 -71.8314 255° West 165 190 8,100  Level Boston Center
Thu 01:42:40 PM 42.2636 -71.8847 264° West 158 182 8,100  Level Boston Center
Thu 01:43:40 PM 42.2722 -71.9464 281° West 164 189 8,100  Level Boston Center
Thu 01:44:41 PM 42.2725 -72.0108 270° West 161 185 8,100  Level Boston Center
Thu 01:45:42 PM 42.2728 -72.0725 270° West 161 185 8,100 -49 Level Boston Center
Thu 01:46:43 PM 42.2875 -72.1286 290° West 165 190 8,000  Descending Boston Center
Thu 01:47:43 PM 42.3042 -72.1847 292° West 163 188 8,100 50 Climbing Boston Center
Thu 01:48:43 PM 42.3211 -72.2436 291° West 162 186 8,100  Level Boston Center
Thu 01:49:44 PM 42.3358 -72.3025 289° West 165 190 8,100  Level Boston Center
Thu 01:50:57 PM 42.3544 -72.3728 290° West 163 188 8,100  Level Boston Center
Thu 01:51:52 PM 42.3733 -72.4233 297° West 165 190 8,100  Level Boston Center
Thu 01:53:04 PM 42.3900 -72.4992 287° West 167 192 8,100  Level Boston Center
Thu 01:53:47 PM 42.4025 -72.5356 295° West 167 192 8,100  Level Boston Center
Thu 01:55:00 PM 42.4211 -72.6117 288° West 168 193 8,100  Level Boston Center
Thu 01:55:49 PM 42.4356 -72.6539 295° West 166 191 8,100  Level Boston Center
Thu 01:57:07 PM 42.4583 -72.7300 292° West 161 185 8,100 -54 Level Boston Center
Thu 01:57:41 PM 42.4667 -72.7639 288° West 161 185 8,000 -56 Descending Boston Center
Thu 01:58:54 PM 42.4872 -72.8314 292° West 165 190 8,000  Level Boston Center
Thu 01:59:54 PM 42.5036 -72.8906 291° West 166 191 8,000  Level Boston Center
Thu 02:00:55 PM 42.5181 -72.9528 288° West 166 191 8,000 49 Level Boston Center
Thu 02:01:56 PM 42.5344 -73.0092 292° West 165 190 8,100 50 Climbing Boston Center
Thu 02:02:56 PM 42.5486 -73.0714 287° West 166 191 8,100 -99 Level Boston Center
Thu 02:03:57 PM 42.5672 -73.1281 294° West 167 192 7,900 -347 Descending Boston Center
Thu 02:04:57 PM 42.5833 -73.1931 289° West 177 204 7,400 -446 Descending Boston Center
Thu 02:05:58 PM 42.6017 -73.2553 292° West 189 217 7,000 -541 Descending Boston Center
Thu 02:06:59 PM 42.6219 -73.3261 291° West 188 216 6,300 -443 Descending Boston Center
Thu 02:08:00 PM 42.6403 -73.3911 291° West 186 214 6,100 -149 Descending Boston Center
Thu 02:09:00 PM 42.6544 -73.4536 287° West 169 194 6,000  Descending Boston Center
Thu 02:10:01 PM 42.6706 -73.5103 291° West 161 185 6,100 -148 Climbing Boston Center
Thu 02:11:02 PM 42.6867 -73.5728 289° West 172 198 5,700 -496 Descending Boston Center
Thu 02:12:02 PM 42.7067 -73.6353 294° West 186 214 5,100 -744 Descending Boston Center
Thu 02:13:03 PM 42.7269 -73.7006 293° West 199 229 4,200 -885 Descending Boston Center
Thu 02:14:04 PM 42.7744 -73.7328 334° Northwest 171 197 3,300 -942 Descending Boston Center
Thu 02:15:04 PM 42.8075 -73.7589 330° Northwest 144 166 2,300 -942 Descending Boston Center
Thu 02:16:05 PM 42.7944 -73.8011 247° West 113 130 1,400 -893 Descending Boston Center
Thu 02:17:05 PM 42.7653 -73.8061 187° South 99 114 500 -900 Descending Boston Center
Thu 02:19:00 PM 42.7491 -73.8020 299° West  Level Estimated
Thu 02:26:00 PM 42.7491 -73.8020 299° West  Level Estimated
Thu 02:27:00 PM 42.7491 -73.8020 299° West  Level Estimated

Login

Don't have an account? Register now (free) for customized features, flight alerts, and more!